sensor_id;sensor_type;location;lat;lon;timestamp;pressure;altitude;pressure_sealevel;temperature;humidity
45078;BME280;60508;42.622;25.416;2022-12-07T00:01:26;96905.19;;;7.77;84.51
45078;BME280;60508;42.622;25.416;2022-12-07T00:03:54;96909.94;;;7.94;84.00
45078;BME280;60508;42.622;25.416;2022-12-07T00:06:23;96907.50;;;7.92;83.91
45078;BME280;60508;42.622;25.416;2022-12-07T00:08:49;96896.50;;;7.82;83.75
45078;BME280;60508;42.622;25.416;2022-12-07T00:11:21;96906.75;;;7.85;83.20
45078;BME280;60508;42.622;25.416;2022-12-07T00:13:56;96917.59;;;7.90;82.67
45078;BME280;60508;42.622;25.416;2022-12-07T00:16:24;96910.47;;;7.84;82.55
45078;BME280;60508;42.622;25.416;2022-12-07T00:18:50;96911.06;;;7.86;82.01
45078;BME280;60508;42.622;25.416;2022-12-07T00:21:18;96907.88;;;7.77;81.16
45078;BME280;60508;42.622;25.416;2022-12-07T00:23:46;96912.97;;;7.60;82.14
45078;BME280;60508;42.622;25.416;2022-12-07T00:26:15;96901.31;;;7.55;82.93
45078;BME280;60508;42.622;25.416;2022-12-07T00:28:48;96904.13;;;7.60;83.84
45078;BME280;60508;42.622;25.416;2022-12-07T00:31:15;96900.16;;;7.44;84.55
45078;BME280;60508;42.622;25.416;2022-12-07T00:33:41;96907.66;;;7.35;85.04
45078;BME280;60508;42.622;25.416;2022-12-07T00:36:10;96906.72;;;7.48;85.71
45078;BME280;60508;42.622;25.416;2022-12-07T00:38:37;96905.38;;;7.57;84.72
45078;BME280;60508;42.622;25.416;2022-12-07T00:41:05;96898.63;;;7.55;84.77
45078;BME280;60508;42.622;25.416;2022-12-07T00:43:31;96900.72;;;7.53;84.39
45078;BME280;60508;42.622;25.416;2022-12-07T00:45:57;96900.50;;;7.54;84.52
45078;BME280;60508;42.622;25.416;2022-12-07T00:48:24;96906.44;;;7.56;84.12
45078;BME280;60508;42.622;25.416;2022-12-07T00:50:50;96897.50;;;7.44;84.27
45078;BME280;60508;42.622;25.416;2022-12-07T00:53:16;96896.91;;;7.42;84.61
45078;BME280;60508;42.622;25.416;2022-12-07T00:55:43;96905.38;;;7.39;84.64
45078;BME280;60508;42.622;25.416;2022-12-07T00:58:09;96898.88;;;7.28;85.12
45078;BME280;60508;42.622;25.416;2022-12-07T01:00:36;96896.97;;;7.35;85.18
45078;BME280;60508;42.622;25.416;2022-12-07T01:03:07;96889.97;;;7.34;85.18
45078;BME280;60508;42.622;25.416;2022-12-07T01:05:33;96883.00;;;7.33;84.66
45078;BME280;60508;42.622;25.416;2022-12-07T01:07:59;96887.09;;;7.36;84.96
45078;BME280;60508;42.622;25.416;2022-12-07T01:10:26;96880.78;;;7.30;84.94
45078;BME280;60508;42.622;25.416;2022-12-07T01:12:52;96882.19;;;7.32;84.58
45078;BME280;60508;42.622;25.416;2022-12-07T01:15:18;96873.22;;;7.27;85.30
45078;BME280;60508;42.622;25.416;2022-12-07T01:17:44;96876.09;;;7.25;85.51
45078;BME280;60508;42.622;25.416;2022-12-07T01:20:11;96882.69;;;7.23;85.30
45078;BME280;60508;42.622;25.416;2022-12-07T01:22:38;96876.75;;;7.21;85.64
45078;BME280;60508;42.622;25.416;2022-12-07T01:25:06;96872.66;;;7.18;85.68
45078;BME280;60508;42.622;25.416;2022-12-07T01:27:33;96880.44;;;7.20;85.87
45078;BME280;60508;42.622;25.416;2022-12-07T01:29:59;96871.47;;;7.14;85.20
45078;BME280;60508;42.622;25.416;2022-12-07T01:32:25;96875.97;;;7.13;84.94
45078;BME280;60508;42.622;25.416;2022-12-07T01:34:50;96877.63;;;7.15;84.70
45078;BME280;60508;42.622;25.416;2022-12-07T01:37:16;96861.16;;;7.18;83.99
45078;BME280;60508;42.622;25.416;2022-12-07T01:39:42;96860.56;;;7.16;83.54
45078;BME280;60508;42.622;25.416;2022-12-07T01:42:10;96861.38;;;7.16;83.49
45078;BME280;60508;42.622;25.416;2022-12-07T01:47:40;96859.91;;;7.20;82.47
45078;BME280;60508;42.622;25.416;2022-12-07T01:50:07;96844.31;;;7.17;82.46
45078;BME280;60508;42.622;25.416;2022-12-07T01:52:34;96847.94;;;7.23;82.81
45078;BME280;60508;42.622;25.416;2022-12-07T01:55:05;96855.81;;;7.18;82.75
45078;BME280;60508;42.622;25.416;2022-12-07T01:57:34;96857.00;;;7.22;82.48
45078;BME280;60508;42.622;25.416;2022-12-07T02:00:04;96858.63;;;7.23;81.46
45078;BME280;60508;42.622;25.416;2022-12-07T02:02:51;96839.56;;;7.19;81.47
45078;BME280;60508;42.622;25.416;2022-12-07T02:05:18;96845.72;;;7.20;81.27
45078;BME280;60508;42.622;25.416;2022-12-07T02:07:46;96851.50;;;7.17;81.26
45078;BME280;60508;42.622;25.416;2022-12-07T02:10:26;96845.34;;;7.16;81.38
45078;BME280;60508;42.622;25.416;2022-12-07T02:12:57;96840.06;;;7.09;81.66
45078;BME280;60508;42.622;25.416;2022-12-07T02:15:30;96844.59;;;7.09;81.26
45078;BME280;60508;42.622;25.416;2022-12-07T02:18:11;96839.25;;;7.09;81.15
45078;BME280;60508;42.622;25.416;2022-12-07T02:29:50;96840.13;;;7.03;81.92
45078;BME280;60508;42.622;25.416;2022-12-07T02:32:38;96837.00;;;7.06;82.18
45078;BME280;60508;42.622;25.416;2022-12-07T02:35:11;96831.25;;;7.09;81.83
45078;BME280;60508;42.622;25.416;2022-12-07T02:40:42;96830.25;;;7.03;81.23
45078;BME280;60508;42.622;25.416;2022-12-07T02:43:16;96830.47;;;7.02;81.38
45078;BME280;60508;42.622;25.416;2022-12-07T02:45:44;96825.34;;;7.00;81.87
45078;BME280;60508;42.622;25.416;2022-12-07T02:48:13;96831.56;;;6.94;81.88
45078;BME280;60508;42.622;25.416;2022-12-07T02:50:44;96823.09;;;6.97;82.10
45078;BME280;60508;42.622;25.416;2022-12-07T02:55:55;96823.59;;;7.12;81.70
45078;BME280;60508;42.622;25.416;2022-12-07T02:58:41;96819.06;;;7.13;81.84
45078;BME280;60508;42.622;25.416;2022-12-07T03:07:06;96819.31;;;7.30;81.24
45078;BME280;60508;42.622;25.416;2022-12-07T03:09:57;96819.91;;;7.32;80.80
45078;BME280;60508;42.622;25.416;2022-12-07T03:12:41;96812.84;;;7.19;81.68
45078;BME280;60508;42.622;25.416;2022-12-07T03:17:59;96818.63;;;7.35;81.19
45078;BME280;60508;42.622;25.416;2022-12-07T03:20:27;96832.28;;;7.26;81.43
45078;BME280;60508;42.622;25.416;2022-12-07T03:22:54;96826.06;;;7.32;81.17
45078;BME280;60508;42.622;25.416;2022-12-07T03:25:21;96824.66;;;7.30;80.58
45078;BME280;60508;42.622;25.416;2022-12-07T03:27:57;96828.00;;;7.25;80.12
45078;BME280;60508;42.622;25.416;2022-12-07T03:30:43;96828.94;;;7.12;80.83
45078;BME280;60508;42.622;25.416;2022-12-07T03:33:14;96828.81;;;7.26;80.19
45078;BME280;60508;42.622;25.416;2022-12-07T03:35:48;96817.09;;;7.27;80.50
45078;BME280;60508;42.622;25.416;2022-12-07T03:38:23;96820.34;;;7.29;80.11
45078;BME280;60508;42.622;25.416;2022-12-07T03:41:04;96822.44;;;7.27;79.50
45078;BME280;60508;42.622;25.416;2022-12-07T03:43:32;96817.09;;;7.27;80.41
45078;BME280;60508;42.622;25.416;2022-12-07T03:48:52;96832.34;;;7.20;80.61
45078;BME280;60508;42.622;25.416;2022-12-07T03:54:34;96813.06;;;7.18;80.44
45078;BME280;60508;42.622;25.416;2022-12-07T03:57:04;96817.59;;;7.17;81.12
45078;BME280;60508;42.622;25.416;2022-12-07T03:59:30;96815.81;;;7.29;80.23
45078;BME280;60508;42.622;25.416;2022-12-07T04:02:02;96809.78;;;7.34;79.33
45078;BME280;60508;42.622;25.416;2022-12-07T04:04:28;96807.50;;;7.38;78.94
45078;BME280;60508;42.622;25.416;2022-12-07T04:06:54;96799.69;;;7.36;78.61
45078;BME280;60508;42.622;25.416;2022-12-07T04:09:20;96814.84;;;7.42;78.87
45078;BME280;60508;42.622;25.416;2022-12-07T04:11:46;96818.59;;;7.41;78.84
45078;BME280;60508;42.622;25.416;2022-12-07T04:14:12;96818.41;;;7.36;79.05
45078;BME280;60508;42.622;25.416;2022-12-07T04:16:55;96808.41;;;7.31;79.64
45078;BME280;60508;42.622;25.416;2022-12-07T04:19:29;96804.59;;;7.39;79.24
45078;BME280;60508;42.622;25.416;2022-12-07T04:21:56;96808.63;;;7.48;78.65
45078;BME280;60508;42.622;25.416;2022-12-07T04:24:23;96803.06;;;7.50;78.45
45078;BME280;60508;42.622;25.416;2022-12-07T04:26:49;96813.66;;;7.57;77.64
45078;BME280;60508;42.622;25.416;2022-12-07T04:29:16;96808.53;;;7.55;78.33
45078;BME280;60508;42.622;25.416;2022-12-07T04:31:43;96799.72;;;7.55;78.13
45078;BME280;60508;42.622;25.416;2022-12-07T04:34:09;96810.63;;;7.53;78.18
45078;BME280;60508;42.622;25.416;2022-12-07T04:36:35;96801.41;;;7.49;77.71
45078;BME280;60508;42.622;25.416;2022-12-07T04:39:02;96802.91;;;7.45;78.54
45078;BME280;60508;42.622;25.416;2022-12-07T04:41:28;96798.94;;;7.47;78.27
45078;BME280;60508;42.622;25.416;2022-12-07T04:43:54;96801.03;;;7.27;79.15
45078;BME280;60508;42.622;25.416;2022-12-07T04:46:21;96804.31;;;7.29;79.22
45078;BME280;60508;42.622;25.416;2022-12-07T04:48:47;96789.91;;;7.30;79.09
45078;BME280;60508;42.622;25.416;2022-12-07T04:51:15;96793.97;;;7.32;79.16
45078;BME280;60508;42.622;25.416;2022-12-07T04:53:43;96790.13;;;7.28;79.79
45078;BME280;60508;42.622;25.416;2022-12-07T04:56:09;96794.53;;;7.41;79.58
45078;BME280;60508;42.622;25.416;2022-12-07T04:58:35;96804.00;;;7.56;78.90
45078;BME280;60508;42.622;25.416;2022-12-07T05:01:00;96802.25;;;7.49;79.04
45078;BME280;60508;42.622;25.416;2022-12-07T05:03:26;96803.78;;;7.39;79.05
45078;BME280;60508;42.622;25.416;2022-12-07T05:05:52;96800.44;;;7.43;78.81
45078;BME280;60508;42.622;25.416;2022-12-07T05:08:18;96803.44;;;7.35;79.60
45078;BME280;60508;42.622;25.416;2022-12-07T05:10:44;96811.22;;;7.37;80.00
45078;BME280;60508;42.622;25.416;2022-12-07T05:13:09;96801.34;;;7.37;79.54
45078;BME280;60508;42.622;25.416;2022-12-07T05:15:35;96800.28;;;7.57;79.25
45078;BME280;60508;42.622;25.416;2022-12-07T05:18:01;96809.97;;;7.58;78.87
45078;BME280;60508;42.622;25.416;2022-12-07T05:20:28;96807.66;;;7.43;79.16
45078;BME280;60508;42.622;25.416;2022-12-07T05:22:54;96808.78;;;7.35;80.08
45078;BME280;60508;42.622;25.416;2022-12-07T05:25:20;96806.03;;;7.42;80.12
45078;BME280;60508;42.622;25.416;2022-12-07T05:27:46;96805.88;;;7.37;80.27
45078;BME280;60508;42.622;25.416;2022-12-07T05:30:12;96811.22;;;7.37;80.30
45078;BME280;60508;42.622;25.416;2022-12-07T05:32:38;96798.97;;;7.29;80.54
45078;BME280;60508;42.622;25.416;2022-12-07T05:35:04;96796.22;;;7.36;80.64
45078;BME280;60508;42.622;25.416;2022-12-07T05:37:30;96804.38;;;7.41;80.90
45078;BME280;60508;42.622;25.416;2022-12-07T05:39:56;96799.03;;;7.41;80.52
45078;BME280;60508;42.622;25.416;2022-12-07T05:42:22;96798.44;;;7.39;80.61
45078;BME280;60508;42.622;25.416;2022-12-07T05:44:48;96808.56;;;7.37;80.79
45078;BME280;60508;42.622;25.416;2022-12-07T05:47:14;96811.59;;;7.40;80.77
45078;BME280;60508;42.622;25.416;2022-12-07T05:49:41;96813.44;;;7.40;79.99
45078;BME280;60508;42.622;25.416;2022-12-07T05:52:07;96819.38;;;7.42;79.47
45078;BME280;60508;42.622;25.416;2022-12-07T05:54:33;96813.81;;;7.43;79.07
45078;BME280;60508;42.622;25.416;2022-12-07T05:56:59;96816.34;;;7.38;79.55
45078;BME280;60508;42.622;25.416;2022-12-07T05:59:25;96826.88;;;7.52;79.04
45078;BME280;60508;42.622;25.416;2022-12-07T06:01:58;96839.44;;;7.51;78.70
45078;BME280;60508;42.622;25.416;2022-12-07T06:04:26;96832.09;;;7.65;77.67
45078;BME280;60508;42.622;25.416;2022-12-07T06:06:53;96823.09;;;7.59;78.02
45078;BME280;60508;42.622;25.416;2022-12-07T06:09:20;96826.06;;;7.70;77.99
45078;BME280;60508;42.622;25.416;2022-12-07T06:11:47;96817.16;;;7.76;77.00
45078;BME280;60508;42.622;25.416;2022-12-07T06:14:32;96822.50;;;7.76;77.21
45078;BME280;60508;42.622;25.416;2022-12-07T06:16:58;96813.50;;;7.70;77.35
45078;BME280;60508;42.622;25.416;2022-12-07T06:19:24;96817.28;;;7.81;77.56
45078;BME280;60508;42.622;25.416;2022-12-07T06:21:50;96827.69;;;7.89;77.16
45078;BME280;60508;42.622;25.416;2022-12-07T06:24:16;96828.13;;;8.04;75.78
45078;BME280;60508;42.622;25.416;2022-12-07T06:26:42;96827.81;;;7.94;75.70
45078;BME280;60508;42.622;25.416;2022-12-07T06:29:09;96824.66;;;7.85;75.66
45078;BME280;60508;42.622;25.416;2022-12-07T06:31:35;96829.09;;;7.92;75.63
45078;BME280;60508;42.622;25.416;2022-12-07T06:34:03;96828.66;;;7.95;75.31
45078;BME280;60508;42.622;25.416;2022-12-07T06:36:30;96830.66;;;7.99;75.58
45078;BME280;60508;42.622;25.416;2022-12-07T06:38:56;96830.88;;;7.98;75.97
45078;BME280;60508;42.622;25.416;2022-12-07T06:41:22;96823.66;;;7.98;76.11
45078;BME280;60508;42.622;25.416;2022-12-07T06:43:49;96830.88;;;7.98;76.35
45078;BME280;60508;42.622;25.416;2022-12-07T06:46:15;96825.00;;;7.89;77.10
45078;BME280;60508;42.622;25.416;2022-12-07T06:48:42;96825.38;;;7.93;76.84
45078;BME280;60508;42.622;25.416;2022-12-07T06:51:08;96832.19;;;8.07;76.87
45078;BME280;60508;42.622;25.416;2022-12-07T06:53:35;96830.34;;;8.08;77.64
45078;BME280;60508;42.622;25.416;2022-12-07T06:56:02;96830.69;;;8.11;77.67
45078;BME280;60508;42.622;25.416;2022-12-07T06:58:28;96826.16;;;8.12;77.03
45078;BME280;60508;42.622;25.416;2022-12-07T07:00:53;96825.03;;;8.19;77.53
45078;BME280;60508;42.622;25.416;2022-12-07T07:03:19;96818.66;;;8.20;77.39
45078;BME280;60508;42.622;25.416;2022-12-07T07:05:45;96823.28;;;8.44;76.77
45078;BME280;60508;42.622;25.416;2022-12-07T07:08:11;96821.91;;;8.53;75.91
45078;BME280;60508;42.622;25.416;2022-12-07T07:10:40;96828.56;;;8.62;76.08
45078;BME280;60508;42.622;25.416;2022-12-07T07:13:06;96832.19;;;8.68;76.13
45078;BME280;60508;42.622;25.416;2022-12-07T07:15:33;96833.72;;;8.75;75.85
45078;BME280;60508;42.622;25.416;2022-12-07T07:18:00;96838.41;;;8.80;75.67
45078;BME280;60508;42.622;25.416;2022-12-07T07:20:26;96835.38;;;8.88;75.90
45078;BME280;60508;42.622;25.416;2022-12-07T07:22:55;96842.50;;;9.06;75.45
45078;BME280;60508;42.622;25.416;2022-12-07T07:25:21;96839.34;;;9.21;75.27
45078;BME280;60508;42.622;25.416;2022-12-07T07:27:47;96854.28;;;9.29;75.39
45078;BME280;60508;42.622;25.416;2022-12-07T07:30:13;96853.81;;;9.32;74.72
45078;BME280;60508;42.622;25.416;2022-12-07T07:32:39;96857.75;;;9.41;74.57
45078;BME280;60508;42.622;25.416;2022-12-07T07:35:05;96852.16;;;9.43;74.52
45078;BME280;60508;42.622;25.416;2022-12-07T07:37:31;96852.88;;;9.50;74.47
45078;BME280;60508;42.622;25.416;2022-12-07T07:39:56;96853.56;;;9.57;74.06
45078;BME280;60508;42.622;25.416;2022-12-07T07:42:22;96853.78;;;9.67;73.52
45078;BME280;60508;42.622;25.416;2022-12-07T07:44:48;96858.91;;;9.81;73.12
45078;BME280;60508;42.622;25.416;2022-12-07T07:47:14;96859.31;;;10.01;72.86
45078;BME280;60508;42.622;25.416;2022-12-07T07:49:39;96858.19;;;10.26;72.13
45078;BME280;60508;42.622;25.416;2022-12-07T07:52:06;96857.63;;;10.24;71.43
45078;BME280;60508;42.622;25.416;2022-12-07T07:54:32;96871.50;;;10.62;70.54
45078;BME280;60508;42.622;25.416;2022-12-07T07:56:58;96853.59;;;11.01;69.35
45078;BME280;60508;42.622;25.416;2022-12-07T07:59:24;96855.97;;;11.48;68.51
45078;BME280;60508;42.622;25.416;2022-12-07T08:01:50;96857.75;;;11.82;66.97
45078;BME280;60508;42.622;25.416;2022-12-07T08:04:16;96857.03;;;12.09;65.59
45078;BME280;60508;42.622;25.416;2022-12-07T08:06:42;96856.00;;;12.37;63.73
45078;BME280;60508;42.622;25.416;2022-12-07T08:09:08;96856.91;;;12.20;62.69
45078;BME280;60508;42.622;25.416;2022-12-07T08:11:35;96851.78;;;12.46;63.00
45078;BME280;60508;42.622;25.416;2022-12-07T08:14:02;96849.72;;;12.81;61.87
45078;BME280;60508;42.622;25.416;2022-12-07T08:16:28;96859.25;;;12.93;60.67
45078;BME280;60508;42.622;25.416;2022-12-07T08:18:54;96854.16;;;12.97;60.13
45078;BME280;60508;42.622;25.416;2022-12-07T08:21:19;96849.03;;;12.95;58.92
45078;BME280;60508;42.622;25.416;2022-12-07T08:23:45;96852.88;;;13.05;59.38
45078;BME280;60508;42.622;25.416;2022-12-07T08:26:14;96851.53;;;13.07;58.63
45078;BME280;60508;42.622;25.416;2022-12-07T08:28:40;96853.03;;;12.38;60.84
45078;BME280;60508;42.622;25.416;2022-12-07T08:31:09;96854.13;;;12.92;59.88
45078;BME280;60508;42.622;25.416;2022-12-07T08:33:36;96851.31;;;13.46;58.89
45078;BME280;60508;42.622;25.416;2022-12-07T08:36:04;96847.22;;;13.86;56.21
45078;BME280;60508;42.622;25.416;2022-12-07T08:38:31;96850.28;;;14.05;55.46
45078;BME280;60508;42.622;25.416;2022-12-07T08:40:57;96850.44;;;13.78;55.99
45078;BME280;60508;42.622;25.416;2022-12-07T08:43:24;96841.66;;;14.03;55.00
45078;BME280;60508;42.622;25.416;2022-12-07T08:48:41;96834.81;;;15.00;50.92
45078;BME280;60508;42.622;25.416;2022-12-07T08:51:09;96848.63;;;15.34;49.64
45078;BME280;60508;42.622;25.416;2022-12-07T08:53:37;96839.13;;;15.47;48.06
45078;BME280;60508;42.622;25.416;2022-12-07T08:56:04;96829.34;;;15.67;47.82
45078;BME280;60508;42.622;25.416;2022-12-07T08:58:30;96830.47;;;15.35;49.23
45078;BME280;60508;42.622;25.416;2022-12-07T09:00:56;96821.78;;;15.59;48.71
45078;BME280;60508;42.622;25.416;2022-12-07T09:03:21;96829.66;;;15.45;49.21
45078;BME280;60508;42.622;25.416;2022-12-07T09:05:47;96811.56;;;14.84;50.73
45078;BME280;60508;42.622;25.416;2022-12-07T09:08:13;96828.81;;;15.55;48.08
45078;BME280;60508;42.622;25.416;2022-12-07T09:10:39;96818.28;;;15.48;48.27
45078;BME280;60508;42.622;25.416;2022-12-07T09:13:05;96817.88;;;16.01;47.77
45078;BME280;60508;42.622;25.416;2022-12-07T09:15:31;96815.59;;;15.38;47.62
45078;BME280;60508;42.622;25.416;2022-12-07T09:17:57;96817.94;;;15.80;47.18
45078;BME280;60508;42.622;25.416;2022-12-07T09:20:23;96804.25;;;16.16;45.90
45078;BME280;60508;42.622;25.416;2022-12-07T09:22:49;96805.81;;;16.33;45.26
45078;BME280;60508;42.622;25.416;2022-12-07T09:25:15;96805.72;;;16.83;44.11
45078;BME280;60508;42.622;25.416;2022-12-07T09:27:41;96811.56;;;16.66;43.74
45078;BME280;60508;42.622;25.416;2022-12-07T09:30:07;96809.94;;;16.65;43.95
45078;BME280;60508;42.622;25.416;2022-12-07T09:32:33;96801.97;;;16.78;43.48
45078;BME280;60508;42.622;25.416;2022-12-07T09:34:59;96795.22;;;16.76;44.35
45078;BME280;60508;42.622;25.416;2022-12-07T09:37:25;96802.94;;;17.81;41.01
45078;BME280;60508;42.622;25.416;2022-12-07T09:39:51;96792.72;;;17.19;42.32
45078;BME280;60508;42.622;25.416;2022-12-07T09:42:27;96794.88;;;18.00;40.99
45078;BME280;60508;42.622;25.416;2022-12-07T09:44:54;96784.69;;;18.68;39.45
45078;BME280;60508;42.622;25.416;2022-12-07T09:47:21;96785.00;;;18.28;39.82
45078;BME280;60508;42.622;25.416;2022-12-07T09:49:46;96776.88;;;18.04;39.90
45078;BME280;60508;42.622;25.416;2022-12-07T09:52:25;96782.91;;;17.23;41.27
45078;BME280;60508;42.622;25.416;2022-12-07T09:54:52;96790.81;;;16.46;43.09
45078;BME280;60508;42.622;25.416;2022-12-07T09:57:22;96774.84;;;15.94;44.86
45078;BME280;60508;42.622;25.416;2022-12-07T09:59:52;96764.63;;;15.65;45.90
45078;BME280;60508;42.622;25.416;2022-12-07T10:02:37;96776.63;;;15.13;46.99
45078;BME280;60508;42.622;25.416;2022-12-07T10:05:06;96761.25;;;14.83;48.38
45078;BME280;60508;42.622;25.416;2022-12-07T10:07:32;96765.53;;;14.42;48.82
45078;BME280;60508;42.622;25.416;2022-12-07T10:09:58;96766.78;;;13.99;49.53
45078;BME280;60508;42.622;25.416;2022-12-07T10:12:24;96760.38;;;13.47;50.52
45078;BME280;60508;42.622;25.416;2022-12-07T10:14:55;96752.97;;;13.32;51.15
45078;BME280;60508;42.622;25.416;2022-12-07T10:20:10;96746.19;;;13.24;51.38
45078;BME280;60508;42.622;25.416;2022-12-07T10:22:38;96745.09;;;13.25;51.56
45078;BME280;60508;42.622;25.416;2022-12-07T10:25:09;96747.81;;;13.25;51.00
45078;BME280;60508;42.622;25.416;2022-12-07T10:27:43;96745.38;;;13.24;51.56
45078;BME280;60508;42.622;25.416;2022-12-07T10:30:14;96751.25;;;13.15;51.60
45078;BME280;60508;42.622;25.416;2022-12-07T10:32:40;96740.81;;;12.87;53.39
45078;BME280;60508;42.622;25.416;2022-12-07T10:35:27;96736.03;;;12.99;53.13
45078;BME280;60508;42.622;25.416;2022-12-07T10:37:56;96735.81;;;13.06;52.55
45078;BME280;60508;42.622;25.416;2022-12-07T10:40:25;96734.66;;;12.96;52.69
45078;BME280;60508;42.622;25.416;2022-12-07T10:45:45;96727.66;;;12.95;52.60
45078;BME280;60508;42.622;25.416;2022-12-07T10:51:27;96723.53;;;13.30;51.58
45078;BME280;60508;42.622;25.416;2022-12-07T10:54:10;96714.09;;;13.28;51.88
45078;BME280;60508;42.622;25.416;2022-12-07T11:02:37;96708.47;;;14.13;49.76
45078;BME280;60508;42.622;25.416;2022-12-07T11:06:14;96709.28;;;14.14;49.81
45078;BME280;60508;42.622;25.416;2022-12-07T11:11:00;96709.34;;;14.86;47.38
45078;BME280;60508;42.622;25.416;2022-12-07T11:37:59;96675.78;;;14.76;46.77
45078;BME280;60508;42.622;25.416;2022-12-07T11:40:30;96667.97;;;14.65;47.62
45078;BME280;60508;42.622;25.416;2022-12-07T11:43:18;96659.00;;;14.59;47.51
45078;BME280;60508;42.622;25.416;2022-12-07T11:45:52;96651.75;;;14.39;47.34
45078;BME280;60508;42.622;25.416;2022-12-07T11:48:24;96649.84;;;14.19;47.80
45078;BME280;60508;42.622;25.416;2022-12-07T11:50:57;96649.84;;;14.19;48.82
45078;BME280;60508;42.622;25.416;2022-12-07T11:53:38;96653.88;;;14.37;48.09
45078;BME280;60508;42.622;25.416;2022-12-07T11:56:16;96650.63;;;14.40;48.18
45078;BME280;60508;42.622;25.416;2022-12-07T11:58:48;96632.47;;;15.02;46.46
45078;BME280;60508;42.622;25.416;2022-12-07T12:06:44;96647.88;;;20.60;35.77
45078;BME280;60508;42.622;25.416;2022-12-07T12:21:08;96631.56;;;22.41;30.86
45078;BME280;60508;42.622;25.416;2022-12-07T12:23:48;96627.91;;;21.05;33.25
45078;BME280;60508;42.622;25.416;2022-12-07T12:26:21;96639.25;;;19.99;35.02
45078;BME280;60508;42.622;25.416;2022-12-07T12:31:31;96622.44;;;18.06;38.18
45078;BME280;60508;42.622;25.416;2022-12-07T12:34:00;96621.13;;;17.41;39.72
45078;BME280;60508;42.622;25.416;2022-12-07T12:36:45;96620.41;;;16.82;40.61
45078;BME280;60508;42.622;25.416;2022-12-07T12:39:16;96626.78;;;16.43;41.84
45078;BME280;60508;42.622;25.416;2022-12-07T12:46:54;96623.84;;;14.85;46.03
45078;BME280;60508;42.622;25.416;2022-12-07T12:51:56;96620.31;;;13.61;49.85
45078;BME280;60508;42.622;25.416;2022-12-07T12:57:33;96626.09;;;13.22;51.48
45078;BME280;60508;42.622;25.416;2022-12-07T13:00:02;96616.91;;;13.18;52.19
45078;BME280;60508;42.622;25.416;2022-12-07T13:02:49;96624.78;;;13.29;52.77
45078;BME280;60508;42.622;25.416;2022-12-07T13:05:23;96620.03;;;13.47;52.02
45078;BME280;60508;42.622;25.416;2022-12-07T13:07:58;96628.16;;;13.62;50.83
45078;BME280;60508;42.622;25.416;2022-12-07T13:15:55;96613.63;;;13.89;50.11
45078;BME280;60508;42.622;25.416;2022-12-07T13:18:40;96623.84;;;13.72;50.97
45078;BME280;60508;42.622;25.416;2022-12-07T13:26:22;96623.84;;;13.66;51.23
45078;BME280;60508;42.622;25.416;2022-12-07T13:28:52;96615.44;;;13.52;51.24
45078;BME280;60508;42.622;25.416;2022-12-07T13:31:34;96619.72;;;13.43;51.66
45078;BME280;60508;42.622;25.416;2022-12-07T13:34:02;96624.59;;;13.41;52.86
45078;BME280;60508;42.622;25.416;2022-12-07T13:36:38;96624.31;;;13.32;52.33
45078;BME280;60508;42.622;25.416;2022-12-07T13:41:42;96628.03;;;13.26;52.87
45078;BME280;60508;42.622;25.416;2022-12-07T13:44:13;96613.66;;;13.10;52.94
45078;BME280;60508;42.622;25.416;2022-12-07T13:49:23;96619.19;;;12.83;54.27
45078;BME280;60508;42.622;25.416;2022-12-07T13:51:49;96618.78;;;12.59;54.99
45078;BME280;60508;42.622;25.416;2022-12-07T13:54:16;96619.78;;;12.48;56.00
45078;BME280;60508;42.622;25.416;2022-12-07T13:56:43;96620.75;;;12.31;56.76
45078;BME280;60508;42.622;25.416;2022-12-07T13:59:23;96615.81;;;12.18;57.51
45078;BME280;60508;42.622;25.416;2022-12-07T14:01:51;96622.22;;;12.12;57.69
45078;BME280;60508;42.622;25.416;2022-12-07T14:06:51;96621.53;;;11.94;58.04
45078;BME280;60508;42.622;25.416;2022-12-07T14:09:23;96618.16;;;11.82;58.65
45078;BME280;60508;42.622;25.416;2022-12-07T14:11:52;96613.75;;;11.70;59.26
45078;BME280;60508;42.622;25.416;2022-12-07T14:14:24;96619.91;;;11.66;60.16
45078;BME280;60508;42.622;25.416;2022-12-07T14:17:00;96609.28;;;11.54;60.62
45078;BME280;60508;42.622;25.416;2022-12-07T14:19:48;96613.22;;;11.46;61.66
45078;BME280;60508;42.622;25.416;2022-12-07T14:22:32;96622.50;;;11.33;61.93
45078;BME280;60508;42.622;25.416;2022-12-07T14:25:21;96623.72;;;11.21;62.71
45078;BME280;60508;42.622;25.416;2022-12-07T14:27:59;96616.31;;;11.11;63.13
45078;BME280;60508;42.622;25.416;2022-12-07T14:30:32;96618.41;;;11.04;63.60
45078;BME280;60508;42.622;25.416;2022-12-07T14:33:01;96608.09;;;10.95;63.13
45078;BME280;60508;42.622;25.416;2022-12-07T14:35:28;96611.34;;;10.98;63.31
45078;BME280;60508;42.622;25.416;2022-12-07T14:37:55;96604.63;;;10.78;63.61
45078;BME280;60508;42.622;25.416;2022-12-07T14:40:23;96621.91;;;10.82;63.67
45078;BME280;60508;42.622;25.416;2022-12-07T14:43:05;96616.31;;;10.67;64.46
45078;BME280;60508;42.622;25.416;2022-12-07T14:45:32;96609.31;;;10.66;64.72
45078;BME280;60508;42.622;25.416;2022-12-07T14:47:58;96609.72;;;10.57;65.44
45078;BME280;60508;42.622;25.416;2022-12-07T14:50:24;96604.03;;;10.54;65.60
45078;BME280;60508;42.622;25.416;2022-12-07T14:53:01;96606.28;;;10.40;65.87
45078;BME280;60508;42.622;25.416;2022-12-07T14:55:30;96612.25;;;10.30;66.46
45078;BME280;60508;42.622;25.416;2022-12-07T14:57:58;96601.06;;;10.16;67.12
45078;BME280;60508;42.622;25.416;2022-12-07T15:00:26;96605.50;;;10.11;67.42
45078;BME280;60508;42.622;25.416;2022-12-07T15:02:53;96618.69;;;10.12;67.17
45078;BME280;60508;42.622;25.416;2022-12-07T15:05:22;96612.44;;;10.07;67.52
45078;BME280;60508;42.622;25.416;2022-12-07T15:07:48;96612.13;;;10.03;67.39
45078;BME280;60508;42.622;25.416;2022-12-07T15:10:21;96608.38;;;10.04;67.59
45078;BME280;60508;42.622;25.416;2022-12-07T15:12:47;96608.28;;;9.99;67.32